createdAt,value
2023-04-27T00:00:00.270Z,0.5255
2023-04-27T00:01:03.167Z,0.5258
2023-04-27T00:02:06.192Z,0.5233
2023-04-27T00:03:09.414Z,0.5206
2023-04-27T00:04:12.164Z,0.5085
2023-04-27T00:05:15.225Z,0.5102
2023-04-27T00:06:17.967Z,0.5326
2023-04-27T00:07:20.878Z,0.5358
2023-04-27T00:08:23.836Z,0.5176
2023-04-27T00:09:26.766Z,0.5029
2023-04-27T00:10:29.796Z,0.5084
2023-04-27T00:11:32.667Z,0.5066
2023-04-27T00:12:35.638Z,0.5096
2023-04-27T00:13:38.599Z,0.5507
2023-04-27T00:14:41.546Z,0.5475
2023-04-27T00:15:44.532Z,0.5386
2023-04-27T00:16:47.582Z,0.5575
2023-04-27T00:17:50.419Z,0.5677
2023-04-27T00:18:53.322Z,0.5389
2023-04-27T00:19:56.270Z,0.5467
2023-04-27T00:20:59.283Z,0.5623
2023-04-27T00:22:02.215Z,0.5504
2023-04-27T00:23:05.121Z,0.5332
2023-04-27T00:24:08.070Z,0.5264
2023-04-27T00:25:11.050Z,0.5359
2023-04-27T00:26:13.977Z,0.5447
2023-04-27T00:27:16.930Z,0.5168
2023-04-27T00:28:19.877Z,0.5065
2023-04-27T00:29:22.831Z,0.5118
2023-04-27T00:30:25.769Z,0.5265
2023-04-27T00:31:28.756Z,0.5468
2023-04-27T00:32:31.700Z,0.5287
2023-04-27T00:33:34.652Z,0.5144
2023-04-27T00:34:37.574Z,0.5070
2023-04-27T00:35:40.725Z,0.5018
2023-04-27T00:36:43.492Z,0.5060
2023-04-27T00:37:46.412Z,0.5061
2023-04-27T00:38:49.371Z,0.4939
2023-04-27T00:39:52.367Z,0.5224
2023-04-27T00:40:55.267Z,0.5278
2023-04-27T00:41:58.247Z,0.5418
2023-04-27T00:43:01.193Z,0.5384
2023-04-27T00:44:04.122Z,0.5298
2023-04-27T00:45:07.081Z,0.5397
2023-04-27T00:46:10.069Z,0.5551
2023-04-27T00:47:13.018Z,0.5580
2023-04-27T00:48:15.994Z,0.5468
2023-04-27T00:49:18.876Z,0.5189
2023-04-27T00:50:21.825Z,0.5093
2023-04-27T00:51:24.780Z,0.5255
2023-04-27T00:52:27.737Z,0.5217
2023-04-27T00:53:30.689Z,0.5354
2023-04-27T00:54:33.678Z,0.5384
2023-04-27T00:55:36.612Z,0.5239
2023-04-27T00:56:39.540Z,0.5063
2023-04-27T00:57:42.505Z,0.4946
2023-04-27T00:58:45.421Z,0.5056
2023-04-27T00:59:48.412Z,0.5161
2023-04-27T01:00:51.341Z,0.5276
2023-04-27T01:01:54.277Z,0.5143
2023-04-27T01:02:57.329Z,0.5136
2023-04-27T01:04:00.298Z,0.5122
2023-04-27T01:05:03.124Z,0.5225
2023-04-27T01:06:06.072Z,0.5274
2023-04-27T01:07:09.196Z,0.4978
2023-04-27T01:08:11.983Z,0.5037
2023-04-27T01:09:15.137Z,0.5249
2023-04-27T01:10:17.871Z,0.5466
2023-04-27T01:11:20.826Z,0.5289
2023-04-27T01:12:23.757Z,0.5071
2023-04-27T01:13:26.757Z,0.4966
2023-04-27T01:14:29.656Z,0.5001
2023-04-27T01:15:32.603Z,0.5036
2023-04-27T01:16:35.602Z,0.5086
2023-04-27T01:17:38.561Z,0.5204
2023-04-27T01:18:41.456Z,0.5215
2023-04-27T01:19:44.478Z,0.5150
2023-04-27T01:20:47.381Z,0.5283
2023-04-27T01:21:50.397Z,0.5336
2023-04-27T01:22:53.248Z,0.5366
2023-04-27T01:23:56.186Z,0.5340
2023-04-27T01:24:59.228Z,0.5394
2023-04-27T01:26:02.095Z,0.5414
2023-04-27T01:27:05.064Z,0.5217
2023-04-27T01:28:08.025Z,0.5362
2023-04-27T01:29:11.235Z,0.5350
2023-04-27T01:30:13.926Z,0.5036
2023-04-27T01:31:16.909Z,0.5101
2023-04-27T01:32:19.806Z,0.5384
2023-04-27T01:33:22.782Z,0.5300
2023-04-27T01:34:25.715Z,0.4975
2023-04-27T01:35:28.641Z,0.5060
2023-04-27T01:36:31.591Z,0.5398
2023-04-27T01:37:34.547Z,0.5412
2023-04-27T01:38:37.499Z,0.5207
2023-04-27T01:39:40.449Z,0.5226
2023-04-27T01:40:43.384Z,0.5361
2023-04-27T01:41:46.371Z,0.5250
2023-04-27T01:42:49.280Z,0.5261
2023-04-27T01:43:52.244Z,0.5293
2023-04-27T01:44:55.205Z,0.5193
2023-04-27T01:45:58.181Z,0.5261
2023-04-27T01:47:01.195Z,0.5469
2023-04-27T01:48:04.069Z,0.5358
2023-04-27T01:49:06.991Z,0.5271
2023-04-27T01:50:09.971Z,0.5224
2023-04-27T01:51:12.940Z,0.5151
2023-04-27T01:52:15.894Z,0.5154
2023-04-27T01:53:18.794Z,0.5264
2023-04-27T01:54:21.739Z,0.5386
2023-04-27T01:55:24.702Z,0.5243
2023-04-27T01:56:27.654Z,0.5328
2023-04-27T01:57:30.613Z,0.5367
2023-04-27T01:58:33.583Z,0.5371
2023-04-27T01:59:36.506Z,0.5419
2023-04-27T02:00:39.439Z,0.5295
2023-04-27T02:01:42.462Z,0.5355
2023-04-27T02:02:45.422Z,0.5291
2023-04-27T02:03:48.415Z,0.5494
2023-04-27T02:04:51.255Z,0.5411
2023-04-27T02:05:54.183Z,0.5437
2023-04-27T02:06:57.141Z,0.5220
2023-04-27T02:08:00.135Z,0.4943
2023-04-27T02:09:03.003Z,0.5041
2023-04-27T02:10:05.999Z,0.5075
2023-04-27T02:11:08.934Z,0.5179
2023-04-27T02:12:11.878Z,0.5350
2023-04-27T02:13:14.795Z,0.5169
2023-04-27T02:14:17.746Z,0.5085
2023-04-27T02:15:20.676Z,0.5112
2023-04-27T02:16:23.673Z,0.5356
2023-04-27T02:17:26.814Z,0.5272
2023-04-27T02:18:29.525Z,0.5170
2023-04-27T02:19:32.491Z,0.5277
2023-04-27T02:20:35.495Z,0.5229
2023-04-27T02:21:38.371Z,0.5215
2023-04-27T02:22:41.317Z,0.5264
2023-04-27T02:23:44.261Z,0.5316
2023-04-27T02:24:47.270Z,0.5285
2023-04-27T02:25:50.142Z,0.5256
2023-04-27T02:26:53.112Z,0.5169
2023-04-27T02:27:56.061Z,0.5097
2023-04-27T02:28:58.993Z,0.5012
2023-04-27T02:30:01.966Z,0.5102
2023-04-27T02:31:04.931Z,0.5154
2023-04-27T02:32:07.834Z,0.5093
2023-04-27T02:33:10.797Z,0.5312
2023-04-27T02:34:13.732Z,0.5349
2023-04-27T02:35:16.719Z,0.5437
2023-04-27T02:36:19.714Z,0.5438
2023-04-27T02:37:22.691Z,0.5566
2023-04-27T02:38:25.585Z,0.5169
2023-04-27T02:39:28.545Z,0.5296
2023-04-27T02:40:31.513Z,0.5339
2023-04-27T02:41:34.457Z,0.5403
2023-04-27T02:42:37.392Z,0.5329
2023-04-27T02:43:40.342Z,0.5240
2023-04-27T02:44:43.314Z,0.5328
2023-04-27T02:45:46.229Z,0.5350
2023-04-27T02:46:49.224Z,0.5250
2023-04-27T02:47:52.172Z,0.5165
2023-04-27T02:48:55.112Z,0.5314
2023-04-27T02:49:58.039Z,0.5406
2023-04-27T02:51:00.968Z,0.5306
2023-04-27T02:52:03.944Z,0.5490
2023-04-27T02:53:06.875Z,0.5347
2023-04-27T02:54:09.821Z,0.5217
2023-04-27T02:55:12.769Z,0.5153
2023-04-27T02:56:15.738Z,0.5142
2023-04-27T02:57:18.664Z,0.5212
2023-04-27T02:58:21.609Z,0.5225
2023-04-27T02:59:24.556Z,0.5358
2023-04-27T03:00:27.508Z,0.5381
2023-04-27T03:01:30.510Z,0.5338
2023-04-27T03:02:33.512Z,0.5168
2023-04-27T03:03:36.422Z,0.5025
2023-04-27T03:04:39.464Z,0.5166
2023-04-27T03:05:42.246Z,0.5074
2023-04-27T03:06:45.204Z,0.5119
2023-04-27T03:07:48.199Z,0.5085
2023-04-27T03:08:51.098Z,0.5240
2023-04-27T03:09:54.033Z,0.5311
2023-04-27T03:10:56.996Z,0.5358
2023-04-27T03:12:00.058Z,0.5299
2023-04-27T03:13:02.902Z,0.5177
2023-04-27T03:14:05.842Z,0.5223
2023-04-27T03:15:08.792Z,0.5158
2023-04-27T03:16:11.827Z,0.5433
2023-04-27T03:17:14.679Z,0.5374
2023-04-27T03:18:17.699Z,0.5520
2023-04-27T03:19:20.575Z,0.5467
2023-04-27T03:20:23.541Z,0.5386
2023-04-27T03:21:26.472Z,0.5059
2023-04-27T03:22:29.468Z,0.5076
2023-04-27T03:23:32.373Z,0.5018
2023-04-27T03:24:35.324Z,0.5027
2023-04-27T03:25:38.266Z,0.5234
2023-04-27T03:26:41.272Z,0.5273
2023-04-27T03:27:44.169Z,0.5504
2023-04-27T03:28:47.103Z,0.5260
2023-04-27T03:29:50.068Z,0.5077
2023-04-27T03:30:53.009Z,0.4871
2023-04-27T03:31:55.973Z,0.4968
2023-04-27T03:32:58.963Z,0.4978
2023-04-27T03:34:01.861Z,0.4978
2023-04-27T03:35:04.790Z,0.5007
2023-04-27T03:36:07.780Z,0.5042
2023-04-27T03:37:10.740Z,0.5111
2023-04-27T03:38:13.683Z,0.5109
2023-04-27T03:39:16.654Z,0.4989
2023-04-27T03:40:19.547Z,0.5009
2023-04-27T03:41:22.484Z,0.4994
2023-04-27T03:42:25.626Z,0.4991
2023-04-27T03:43:28.408Z,0.5112
2023-04-27T03:44:31.374Z,0.5178
2023-04-27T03:45:34.285Z,0.5247
2023-04-27T03:46:37.248Z,0.5161
2023-04-27T03:47:40.261Z,0.5171
2023-04-27T03:48:43.180Z,0.5242
2023-04-27T03:49:46.110Z,0.5327
2023-04-27T03:50:49.036Z,0.5329
2023-04-27T03:51:51.981Z,0.5189
2023-04-27T03:52:54.946Z,0.5068
2023-04-27T03:53:57.861Z,0.5162
2023-04-27T03:55:00.876Z,0.5173
2023-04-27T03:56:03.756Z,0.5348
2023-04-27T03:57:06.731Z,0.5496
2023-04-27T03:58:09.706Z,0.5178
2023-04-27T03:59:12.950Z,0.5113
2023-04-27T04:00:15.571Z,0.5141
2023-04-27T04:01:18.503Z,0.5140
2023-04-27T04:02:21.520Z,0.5273
2023-04-27T04:03:24.534Z,0.5223
2023-04-27T04:04:27.514Z,0.5090
2023-04-27T04:05:30.353Z,0.5193
2023-04-27T04:06:33.231Z,0.5220
2023-04-27T04:07:36.206Z,0.5216
2023-04-27T04:08:39.129Z,0.5312
2023-04-27T04:09:42.160Z,0.5288
2023-04-27T04:10:45.070Z,0.5302
2023-04-27T04:11:48.055Z,0.5481
2023-04-27T04:12:50.971Z,0.5417
2023-04-27T04:13:53.967Z,0.5372
2023-04-27T04:14:56.845Z,0.5381
2023-04-27T04:15:59.892Z,0.5417
2023-04-27T04:17:02.829Z,0.5338
2023-04-27T04:18:05.779Z,0.5214
2023-04-27T04:19:08.670Z,0.5036
2023-04-27T04:20:11.609Z,0.5008
2023-04-27T04:21:14.875Z,0.5034
2023-04-27T04:22:17.469Z,0.5310
2023-04-27T04:23:20.443Z,0.5270
2023-04-27T04:24:23.372Z,0.5149
2023-04-27T04:25:26.360Z,0.5300
2023-04-27T04:26:29.342Z,0.5279
2023-04-27T04:27:32.278Z,0.5409
2023-04-27T04:28:35.178Z,0.5183
2023-04-27T04:29:38.104Z,0.5193
2023-04-27T04:30:41.093Z,0.5118
2023-04-27T04:31:44.060Z,0.5227
2023-04-27T04:32:47.049Z,0.5059
2023-04-27T04:33:49.945Z,0.5073
2023-04-27T04:34:52.863Z,0.5183
2023-04-27T04:35:55.819Z,0.5301
2023-04-27T04:36:58.783Z,0.5287
2023-04-27T04:38:01.757Z,0.5463
2023-04-27T04:39:04.689Z,0.5533
2023-04-27T04:40:07.602Z,0.5317
2023-04-27T04:41:10.576Z,0.5126
2023-04-27T04:42:13.492Z,0.5183
2023-04-27T04:43:16.489Z,0.5313
2023-04-27T04:44:19.413Z,0.5185
2023-04-27T04:45:22.400Z,0.5080
2023-04-27T04:46:25.337Z,0.5158
2023-04-27T04:47:28.315Z,0.5072
2023-04-27T04:48:31.218Z,0.5064
2023-04-27T04:49:34.265Z,0.5000
2023-04-27T04:50:37.096Z,0.5092
2023-04-27T04:51:40.039Z,0.5201
2023-04-27T04:52:42.999Z,0.5348
2023-04-27T04:53:46.057Z,0.5172
2023-04-27T04:54:48.923Z,0.5058
2023-04-27T04:55:51.852Z,0.5287
2023-04-27T04:56:54.769Z,0.5424
2023-04-27T04:57:57.742Z,0.5514
2023-04-27T04:59:00.700Z,0.5461
2023-04-27T05:00:03.677Z,0.5520
2023-04-27T05:01:06.828Z,0.5483
2023-04-27T05:02:09.545Z,0.5293
2023-04-27T05:03:15.211Z,0.5133
2023-04-27T05:04:15.794Z,0.5010
2023-04-27T05:05:18.368Z,0.5066
2023-04-27T05:06:21.328Z,0.5047
2023-04-27T05:07:25.173Z,0.5043
2023-04-27T05:08:27.249Z,0.5222
2023-04-27T05:09:30.187Z,0.5186
2023-04-27T05:10:33.120Z,0.5164
2023-04-27T05:11:36.034Z,0.5038
2023-04-27T05:12:38.990Z,0.5052
2023-04-27T05:13:41.949Z,0.5106
2023-04-27T05:14:44.904Z,0.5014
2023-04-27T05:15:47.858Z,0.5025
2023-04-27T05:16:50.766Z,0.5375
2023-04-27T05:17:53.820Z,0.5329
2023-04-27T05:18:56.676Z,0.5100
2023-04-27T05:19:59.637Z,0.5049
2023-04-27T05:21:02.561Z,0.5318
2023-04-27T05:22:05.510Z,0.5187
2023-04-27T05:23:08.486Z,0.5287
2023-04-27T05:24:11.403Z,0.5408
2023-04-27T05:25:14.528Z,0.5356
2023-04-27T05:26:17.290Z,0.5281
2023-04-27T05:27:20.261Z,0.5139
2023-04-27T05:28:23.192Z,0.5051
2023-04-27T05:29:26.164Z,0.5044
2023-04-27T05:30:29.114Z,0.5355
2023-04-27T05:31:32.049Z,0.5289
2023-04-27T05:32:35.040Z,0.5053
2023-04-27T05:33:37.930Z,0.5063
2023-04-27T05:34:40.979Z,0.5031
2023-04-27T05:35:43.830Z,0.5069
2023-04-27T05:36:46.795Z,0.4930
2023-04-27T05:37:49.743Z,0.5068
2023-04-27T05:38:52.676Z,0.5166
2023-04-27T05:39:55.636Z,0.5069
2023-04-27T05:40:58.563Z,0.5235
2023-04-27T05:42:01.604Z,0.5190
2023-04-27T05:43:04.450Z,0.5201
2023-04-27T05:44:07.429Z,0.5140
2023-04-27T05:45:10.343Z,0.5189
2023-04-27T05:46:13.389Z,0.5176
2023-04-27T05:47:16.258Z,0.5133
2023-04-27T05:48:19.181Z,0.4942
2023-04-27T05:49:22.129Z,0.5117
2023-04-27T05:50:25.079Z,0.5111
2023-04-27T05:51:28.013Z,0.4973
2023-04-27T05:52:31.048Z,0.5011
2023-04-27T05:53:33.914Z,0.5178
2023-04-27T05:54:36.861Z,0.5116
2023-04-27T05:55:39.803Z,0.5035
2023-04-27T05:56:42.771Z,0.5000
2023-04-27T05:58:48.708Z,0.5382
2023-04-27T05:59:51.600Z,0.5137
2023-04-27T06:00:54.689Z,0.5046
2023-04-27T06:01:57.637Z,0.5340
2023-04-27T06:03:00.711Z,0.5345
2023-04-27T06:04:03.526Z,0.5184
2023-04-27T06:05:06.430Z,0.4896
2023-04-27T06:06:09.293Z,0.5053
2023-04-27T06:07:12.277Z,0.5249
2023-04-27T06:08:15.188Z,0.5228
2023-04-27T06:09:18.151Z,0.5148
2023-04-27T06:10:21.084Z,0.5266
2023-04-27T06:11:24.056Z,0.5273
2023-04-27T06:12:26.994Z,0.5324
2023-04-27T06:13:29.923Z,0.5179
2023-04-27T06:14:32.872Z,0.5184
2023-04-27T06:15:35.834Z,0.5139
2023-04-27T06:16:39.016Z,0.5050
2023-04-27T06:17:41.806Z,0.4983
2023-04-27T06:18:44.658Z,0.5260
2023-04-27T06:19:47.605Z,0.5404
2023-04-27T06:20:50.550Z,0.5441
2023-04-27T06:21:53.517Z,0.5213
2023-04-27T06:22:56.432Z,0.5029
2023-04-27T06:23:59.439Z,0.4963
2023-04-27T06:25:02.363Z,0.5242
2023-04-27T06:26:05.270Z,0.5308
2023-04-27T06:27:08.227Z,0.5408
2023-04-27T06:28:11.180Z,0.5363
2023-04-27T06:29:14.374Z,0.5225
2023-04-27T06:30:17.055Z,0.5404
2023-04-27T06:31:20.077Z,0.5401
2023-04-27T06:32:22.993Z,0.5492
2023-04-27T06:33:25.917Z,0.5268
2023-04-27T06:34:28.852Z,0.5300
2023-04-27T06:35:31.798Z,0.5240
2023-04-27T06:36:34.750Z,0.5134
2023-04-27T06:37:37.694Z,0.5125
2023-04-27T06:38:40.652Z,0.5151
2023-04-27T06:39:43.594Z,0.5399
2023-04-27T06:40:46.536Z,0.5570
2023-04-27T06:41:49.492Z,0.5540
2023-04-27T06:42:52.461Z,0.5393
2023-04-27T06:43:57.472Z,0.5365
2023-04-27T06:44:58.396Z,0.5257
2023-04-27T06:46:01.449Z,0.4928
2023-04-27T06:47:04.288Z,0.5058
2023-04-27T06:48:07.388Z,0.5194
2023-04-27T06:49:10.193Z,0.5118
2023-04-27T06:50:13.147Z,0.5101
2023-04-27T06:51:16.069Z,0.5122
2023-04-27T06:52:19.007Z,0.5472
2023-04-27T06:53:21.944Z,0.5314
2023-04-27T06:54:24.912Z,0.5081
2023-04-27T06:55:27.839Z,0.5036
2023-04-27T06:56:30.797Z,0.5002
2023-04-27T06:57:33.734Z,0.4848
2023-04-27T06:58:36.711Z,0.5018
2023-04-27T06:59:39.635Z,0.5371
2023-04-27T07:00:42.663Z,0.5157
2023-04-27T07:01:45.543Z,0.5134
2023-04-27T07:02:48.518Z,0.5044
2023-04-27T07:03:51.936Z,0.4889
2023-04-27T07:04:54.436Z,0.4880
2023-04-27T07:05:57.294Z,0.5125
2023-04-27T07:07:00.242Z,0.5059
2023-04-27T07:08:06.161Z,0.5034
2023-04-27T07:09:16.359Z,0.5099
2023-04-27T07:10:09.098Z,0.4905
2023-04-27T07:11:12.057Z,0.5193
2023-04-27T07:12:14.977Z,0.5036
2023-04-27T07:13:17.935Z,0.5150
2023-04-27T07:14:20.868Z,0.5189
2023-04-27T07:15:23.871Z,0.5004
2023-04-27T07:16:26.888Z,0.5151
2023-04-27T07:17:29.736Z,0.4823
2023-04-27T07:18:32.648Z,0.4880
2023-04-27T07:19:35.597Z,0.4806
2023-04-27T07:20:38.520Z,0.4895
2023-04-27T07:21:41.501Z,0.4733
2023-04-27T07:22:44.453Z,0.4931
2023-04-27T07:23:47.368Z,0.5012
2023-04-27T07:24:50.339Z,0.4961
2023-04-27T07:25:53.298Z,0.4972
2023-04-27T07:26:56.241Z,0.5059
2023-04-27T07:27:59.208Z,0.5077
2023-04-27T07:29:11.132Z,0.5039
2023-04-27T07:30:05.122Z,0.5097
2023-04-27T07:31:08.049Z,0.5205
2023-04-27T07:32:11.084Z,0.5443
2023-04-27T07:33:13.924Z,0.5393
2023-04-27T07:34:16.880Z,0.5197
2023-04-27T07:35:19.836Z,0.5332
2023-04-27T07:36:22.791Z,0.5321
2023-04-27T07:37:26.038Z,0.5000
2023-04-27T07:38:28.699Z,0.5085
2023-04-27T07:39:31.644Z,0.5379
2023-04-27T07:40:34.619Z,0.5170
2023-04-27T07:41:37.695Z,0.5216
2023-04-27T07:42:40.514Z,0.5256
2023-04-27T07:43:43.449Z,0.5332
2023-04-27T07:44:46.415Z,0.5521
2023-04-27T07:45:49.407Z,0.5561
2023-04-27T07:46:52.323Z,0.5515
2023-04-27T07:47:57.575Z,0.5252
2023-04-27T07:48:58.256Z,0.5167
2023-04-27T07:50:01.177Z,0.5296
2023-04-27T07:51:04.131Z,0.5320
2023-04-27T07:52:07.103Z,0.5559
2023-04-27T07:53:10.033Z,0.5682
2023-04-27T07:54:13.001Z,0.5507
2023-04-27T07:55:15.941Z,0.5527
2023-04-27T07:56:18.885Z,0.5416
2023-04-27T07:57:22.009Z,0.5561
2023-04-27T07:58:24.794Z,0.5571
2023-04-27T07:59:27.751Z,0.5466
2023-04-27T08:00:30.767Z,0.5439
2023-04-27T08:01:33.665Z,0.5333
2023-04-27T08:02:36.775Z,0.5284
2023-04-27T08:03:39.897Z,0.5179
2023-04-27T08:04:42.818Z,0.5196
2023-04-27T08:05:45.674Z,0.5010
2023-04-27T08:06:48.934Z,0.4990
2023-04-27T08:07:51.848Z,0.5183
2023-04-27T08:08:54.431Z,0.5321
2023-04-27T08:09:57.282Z,0.5368
2023-04-27T08:11:00.222Z,0.5307
2023-04-27T08:12:03.184Z,0.5232
2023-04-27T08:13:06.122Z,0.5250
2023-04-27T08:14:09.126Z,0.5523
2023-04-27T08:15:12.044Z,0.5503
2023-04-27T08:16:15.003Z,0.5211
2023-04-27T08:17:17.941Z,0.5113
2023-04-27T08:18:20.871Z,0.5192
2023-04-27T08:19:23.834Z,0.5085
2023-04-27T08:20:26.796Z,0.5386
2023-04-27T08:21:29.714Z,0.5382
2023-04-27T08:22:32.664Z,0.5316
2023-04-27T08:23:35.635Z,0.5114
2023-04-27T08:24:38.575Z,0.5370
2023-04-27T08:25:41.499Z,0.5436
2023-04-27T08:26:44.429Z,0.5298
2023-04-27T08:27:47.378Z,0.5305
2023-04-27T08:28:50.365Z,0.5139
2023-04-27T08:29:53.255Z,0.5159
2023-04-27T08:30:56.227Z,0.5127
2023-04-27T08:31:59.263Z,0.5234
2023-04-27T08:33:02.213Z,0.5240
2023-04-27T08:34:05.058Z,0.5149
2023-04-27T08:35:07.989Z,0.5184
2023-04-27T08:36:10.931Z,0.5307
2023-04-27T08:37:14.094Z,0.5347
2023-04-27T08:38:16.837Z,0.5315
2023-04-27T08:39:19.797Z,0.5471
2023-04-27T08:40:22.906Z,0.5358
2023-04-27T08:41:25.671Z,0.5037
2023-04-27T08:42:28.646Z,0.4846
2023-04-27T08:43:31.584Z,0.4865
2023-04-27T08:44:34.501Z,0.4936
2023-04-27T08:45:37.447Z,0.5214
2023-04-27T08:46:40.408Z,0.5354
2023-04-27T08:47:44.139Z,0.5247
2023-04-27T08:48:46.276Z,0.5174
2023-04-27T08:49:49.269Z,0.5109
2023-04-27T08:50:52.222Z,0.5190
2023-04-27T08:51:55.125Z,0.5065
2023-04-27T08:52:58.081Z,0.5283
2023-04-27T08:54:01.012Z,0.5180
2023-04-27T08:55:03.975Z,0.5244
2023-04-27T08:56:06.970Z,0.5295
2023-04-27T08:57:09.850Z,0.5441
2023-04-27T08:58:12.824Z,0.5299
2023-04-27T08:59:16.541Z,0.5277
2023-04-27T09:00:18.735Z,0.5178
2023-04-27T09:01:21.917Z,0.5011
2023-04-27T09:02:24.621Z,0.5007
2023-04-27T09:03:27.678Z,0.4965
2023-04-27T09:04:30.599Z,0.4924
2023-04-27T09:05:33.529Z,0.4979
2023-04-27T09:06:36.452Z,0.4947
2023-04-27T09:07:39.327Z,0.5018
2023-04-27T09:08:42.276Z,0.5077
2023-04-27T09:09:45.272Z,0.5132
2023-04-27T09:10:48.183Z,0.5162
2023-04-27T09:11:51.127Z,0.5176
2023-04-27T09:12:54.084Z,0.5084
2023-04-27T09:13:57.046Z,0.5249
2023-04-27T09:14:59.975Z,0.5086
2023-04-27T09:16:02.942Z,0.5091
2023-04-27T09:17:05.868Z,0.5113
2023-04-27T09:18:08.871Z,0.5047
2023-04-27T09:19:11.965Z,0.4803
2023-04-27T09:20:14.699Z,0.4930
2023-04-27T09:21:17.689Z,0.5162
2023-04-27T09:22:20.640Z,0.5003
2023-04-27T09:23:23.564Z,0.5039
2023-04-27T09:24:26.501Z,0.5102
2023-04-27T09:25:29.484Z,0.5151
2023-04-27T09:26:32.415Z,0.5103
2023-04-27T09:27:35.366Z,0.5006
2023-04-27T09:28:38.326Z,0.4872
2023-04-27T09:29:41.248Z,0.4992
2023-04-27T09:30:44.179Z,0.5021
2023-04-27T09:31:47.215Z,0.5091
2023-04-27T09:32:50.123Z,0.5066
2023-04-27T09:33:53.053Z,0.4956
2023-04-27T09:34:55.982Z,0.4923
2023-04-27T09:35:58.930Z,0.4923
2023-04-27T09:37:01.873Z,0.5040
2023-04-27T09:38:04.892Z,0.5123
2023-04-27T09:39:07.812Z,0.5219
2023-04-27T09:40:10.718Z,0.5135
2023-04-27T09:41:13.672Z,0.5254
2023-04-27T09:42:16.653Z,0.5171
2023-04-27T09:43:19.554Z,0.4965
2023-04-27T09:44:22.535Z,0.5063
2023-04-27T09:45:25.664Z,0.5102
2023-04-27T09:46:28.532Z,0.5140
2023-04-27T09:47:31.390Z,0.5073
2023-04-27T09:48:34.352Z,0.5007
2023-04-27T09:49:37.286Z,0.5166
2023-04-27T09:50:40.220Z,0.5200
2023-04-27T09:51:43.169Z,0.5263
2023-04-27T09:52:46.239Z,0.5223
2023-04-27T09:53:49.475Z,0.5188
2023-04-27T09:54:52.027Z,0.5259
2023-04-27T09:55:54.971Z,0.5204
2023-04-27T09:56:57.932Z,0.5233
2023-04-27T09:58:00.883Z,0.5237
2023-04-27T09:59:03.847Z,0.5002
2023-04-27T10:00:06.826Z,0.4825
2023-04-27T10:01:09.795Z,0.4810
2023-04-27T10:02:24.278Z,0.4741
2023-04-27T10:03:15.729Z,0.4844
2023-04-27T10:04:18.745Z,0.4792
2023-04-27T10:05:21.613Z,0.4812
2023-04-27T10:06:24.546Z,0.4779
2023-04-27T10:07:27.470Z,0.4867
2023-04-27T10:08:30.409Z,0.5069
2023-04-27T10:09:33.385Z,0.5015
2023-04-27T10:10:36.399Z,0.4857
2023-04-27T10:11:39.306Z,0.4939
2023-04-27T10:12:42.219Z,0.4886
2023-04-27T10:13:45.169Z,0.4985
2023-04-27T10:14:48.123Z,0.5018
2023-04-27T10:15:51.076Z,0.5089
2023-04-27T10:16:54.113Z,0.5183
2023-04-27T10:17:57.182Z,0.5224
2023-04-27T10:18:59.901Z,0.5120
2023-04-27T10:20:02.860Z,0.4977
2023-04-27T10:21:05.798Z,0.4812
2023-04-27T10:22:08.746Z,0.4866
2023-04-27T10:23:11.736Z,0.5083
2023-04-27T10:24:14.647Z,0.5230
2023-04-27T10:25:17.596Z,0.5376
2023-04-27T10:26:20.540Z,0.5172
2023-04-27T10:27:23.503Z,0.5015
2023-04-27T10:28:26.445Z,0.5027
2023-04-27T10:29:29.417Z,0.4979
2023-04-27T10:30:32.458Z,0.4928
2023-04-27T10:31:35.310Z,0.5006
2023-04-27T10:32:38.282Z,0.5153
2023-04-27T10:33:41.211Z,0.5040
2023-04-27T10:34:44.162Z,0.4993
2023-04-27T10:35:47.092Z,0.5063
2023-04-27T10:36:50.031Z,0.5143
2023-04-27T10:37:52.964Z,0.5116
2023-04-27T10:38:55.970Z,0.4901
2023-04-27T10:39:58.898Z,0.5025
2023-04-27T10:41:01.886Z,0.5125
2023-04-27T10:42:04.765Z,0.5093
2023-04-27T10:43:07.735Z,0.5125
2023-04-27T10:44:10.675Z,0.5164
2023-04-27T10:45:13.644Z,0.5232
2023-04-27T10:46:16.677Z,0.5110
2023-04-27T10:47:19.528Z,0.5171
2023-04-27T10:48:22.645Z,0.5192
2023-04-27T10:49:25.434Z,0.5223
2023-04-27T10:50:28.405Z,0.5147
2023-04-27T10:51:31.403Z,0.5103
2023-04-27T10:52:34.387Z,0.4993
2023-04-27T10:53:37.336Z,0.4972
2023-04-27T10:54:40.287Z,0.5072
2023-04-27T10:55:43.269Z,0.5177
2023-04-27T10:56:46.211Z,0.5165
2023-04-27T10:57:49.152Z,0.5090
2023-04-27T10:58:52.181Z,0.5055
2023-04-27T10:59:55.114Z,0.5017
2023-04-27T11:00:58.045Z,0.4939
2023-04-27T11:02:01.009Z,0.4822
2023-04-27T11:03:04.068Z,0.4911
2023-04-27T11:04:06.921Z,0.4929
2023-04-27T11:05:09.959Z,0.4895
2023-04-27T11:06:12.849Z,0.5054
2023-04-27T11:07:15.816Z,0.4961
2023-04-27T11:08:18.755Z,0.4987
2023-04-27T11:09:21.760Z,0.5085
2023-04-27T11:10:24.765Z,0.5101
2023-04-27T11:11:27.622Z,0.5018
2023-04-27T11:12:30.540Z,0.4957
2023-04-27T11:13:33.545Z,0.4842
2023-04-27T11:14:36.467Z,0.4775
2023-04-27T11:15:39.480Z,0.4784
2023-04-27T11:16:42.488Z,0.4861
2023-04-27T11:17:45.337Z,0.4852
2023-04-27T11:18:48.278Z,0.4883
2023-04-27T11:19:51.231Z,0.4941
2023-04-27T11:20:54.212Z,0.4843
2023-04-27T11:21:57.155Z,0.4900
2023-04-27T11:23:00.127Z,0.4959
2023-04-27T11:24:03.069Z,0.4911
2023-04-27T11:25:06.021Z,0.4851
2023-04-27T11:26:09.065Z,0.4853
2023-04-27T11:27:11.947Z,0.4913
2023-04-27T11:28:14.907Z,0.4933
2023-04-27T11:29:18.096Z,0.5060
2023-04-27T11:30:20.817Z,0.5043
2023-04-27T11:31:23.900Z,0.5025
2023-04-27T11:32:26.752Z,0.5051
2023-04-27T11:33:29.684Z,0.4994
2023-04-27T11:34:32.651Z,0.4939
2023-04-27T11:35:35.604Z,0.4894
2023-04-27T11:36:38.624Z,0.4910
2023-04-27T11:37:41.524Z,0.4908
2023-04-27T11:38:44.619Z,0.4848
2023-04-27T11:39:47.462Z,0.4821
2023-04-27T11:40:50.409Z,0.4852
2023-04-27T11:41:53.378Z,0.4908
2023-04-27T11:42:56.325Z,0.4993
2023-04-27T11:43:59.272Z,0.5056
2023-04-27T11:45:02.249Z,0.5047
2023-04-27T11:46:05.194Z,0.4881
2023-04-27T11:47:08.213Z,0.4786
2023-04-27T11:48:11.191Z,0.4769
2023-04-27T11:49:14.340Z,0.4735
2023-04-27T11:50:17.045Z,0.4729
2023-04-27T11:51:20.007Z,0.4753
2023-04-27T11:52:23.015Z,0.4850
2023-04-27T11:53:26.017Z,0.4891
2023-04-27T11:54:28.977Z,0.4880
2023-04-27T11:55:31.855Z,0.4764
2023-04-27T11:56:34.807Z,0.4837
2023-04-27T11:57:37.775Z,0.4968
2023-04-27T11:58:40.892Z,0.4883
2023-04-27T11:59:43.797Z,0.4838
2023-04-27T12:00:46.665Z,0.4927
2023-04-27T12:01:49.637Z,0.4946
2023-04-27T12:02:52.750Z,0.4861
2023-04-27T12:03:55.649Z,0.4911
2023-04-27T12:04:58.672Z,0.5003
2023-04-27T12:06:16.151Z,0.4927
2023-04-27T12:07:04.588Z,0.4924
2023-04-27T12:08:07.400Z,0.5003
2023-04-27T12:09:10.342Z,0.4930
2023-04-27T12:10:13.478Z,0.5058
2023-04-27T12:11:16.286Z,0.5066
2023-04-27T12:12:19.322Z,0.5076
2023-04-27T12:13:22.209Z,0.5136
2023-04-27T12:14:25.157Z,0.5205
2023-04-27T12:15:28.240Z,0.5076
2023-04-27T12:16:31.091Z,0.5046
2023-04-27T12:17:34.096Z,0.4988
2023-04-27T12:18:37.012Z,0.5054
2023-04-27T12:19:39.964Z,0.5143
2023-04-27T12:20:42.937Z,0.5083
2023-04-27T12:21:45.950Z,0.5027
2023-04-27T12:22:48.823Z,0.4993
2023-04-27T12:23:51.775Z,0.4978
2023-04-27T12:24:54.800Z,0.4945
2023-04-27T12:25:57.739Z,0.4928
2023-04-27T12:27:00.659Z,0.4990
2023-04-27T12:28:03.634Z,0.4984
2023-04-27T12:29:06.591Z,0.4971
2023-04-27T12:30:09.548Z,0.5075
2023-04-27T12:31:12.586Z,0.5019
2023-04-27T12:32:15.470Z,0.5052
2023-04-27T12:33:18.450Z,0.5082
2023-04-27T12:34:21.361Z,0.5019
2023-04-27T12:35:24.320Z,0.4989
2023-04-27T12:36:27.324Z,0.4996
2023-04-27T12:37:30.253Z,0.4965
2023-04-27T12:38:33.179Z,0.4872
2023-04-27T12:39:36.133Z,0.4907
2023-04-27T12:40:39.085Z,0.4942
2023-04-27T12:41:42.034Z,0.4978
2023-04-27T12:42:44.978Z,0.5043
2023-04-27T12:43:47.969Z,0.5065
2023-04-27T12:44:50.882Z,0.5090
2023-04-27T12:45:53.845Z,0.5150
2023-04-27T12:46:56.800Z,0.5116
2023-04-27T12:48:03.856Z,0.4987
2023-04-27T12:49:02.682Z,0.4922
2023-04-27T12:50:05.663Z,0.4989
2023-04-27T12:51:08.588Z,0.5029
2023-04-27T12:52:11.565Z,0.5041
2023-04-27T12:53:14.514Z,0.5039
2023-04-27T12:54:17.516Z,0.4999
2023-04-27T12:55:32.205Z,0.4963
2023-04-27T12:56:23.391Z,0.4915
2023-04-27T12:57:26.329Z,0.4867
2023-04-27T12:58:29.278Z,0.4911
2023-04-27T12:59:32.225Z,0.5017
2023-04-27T13:00:35.198Z,0.4978
2023-04-27T13:01:38.155Z,0.4885
2023-04-27T13:02:41.341Z,0.4896
2023-04-27T13:03:44.265Z,0.4926
2023-04-27T13:04:47.135Z,0.4961
2023-04-27T13:05:49.926Z,0.4955